Skip Navigation LinksHome page > Weather > Current weather Skip Navigation Links

Current Weather

Ronald Reagan Washington National, Washington

For information only: do not use for flight planning or navigation.
Latest weather
Observation time Friday, August 1, 2014 9:52 PM EDT
Local time Friday, August 1, 2014 10:25 PM EDT
Flight conditions Visual Meteorological Conditions
Winds
Wind direction South-Southeast (150°)
Wind speed 9 mph
Visibility 10 mi.
Sky condition
Ceiling 20,000 ft. broken clouds
Cloud layer scattered clouds 2,100 ft.
Cloud layer scattered clouds 12,000 ft.
Cloud layer broken clouds 20,000 ft.
Temperature 76°F
Dewpoint 64°F
Altimeter 30.18 in.Hg
Derived measurements
Relative humidity 67%
Density altitude 1074 ft.
Sea-level pressure 30.18 in.Hg
Remarks
Automated weather observing station with precipitation discriminator.
METAR KDCA 020152Z 15008KT 10SM SCT021 SCT120 BKN200 24/18 A3018 RMK AO2 SLP220 T02440178

Settings

Location code

InnerDrive.Weather 4.0.5294.0 Release CLR 4.0.30319.34014
Copyright ©2014 Inner Drive Technology. All rights reserved. Portions Copyright ©1986-2014 David Braverman.

Find weather

Site navigation


Skip Navigation Links

Place info

Page info

PayPal - The safer, easier way to pay online!

Return home.

Copyright ©2014 Inner Drive Technology. Purveyors of fine, hand-crafted computer software. Page printed 2014-08-02T02:25:20 UTC.